Time;durP1;ratioP1;P1;durP2;ratioP2;P2;SDS_P1;SDS_P2;PMS_P1;PMS_P2;Temp;Humidity;BMP_temperature;BMP_pressure;BME280_temperature;BME280_humidity;BME280_pressure;Samples;Min_cycle;Max_cycle;Signal;HPM_P1;HPM_P2
2022/07/19 00:01:37;;;;;;;8.60;3.22;;;26.00;66.60;;;;;;4824716;29;20091;-78
2022/07/19 00:04:03;;;;;;;4.28;2.70;;;26.00;66.90;;;;;;4824779;29;20372;-78
2022/07/19 00:06:29;;;;;;;4.95;2.88;;;25.90;68.00;;;;;;4824616;29;20091;-77
2022/07/19 00:08:54;;;;;;;5.47;2.30;;;25.70;68.60;;;;;;4824748;29;20499;-78
2022/07/19 00:11:20;;;;;;;3.05;2.17;;;25.80;69.10;;;;;;4823778;29;20114;-78
2022/07/19 00:13:46;;;;;;;5.13;2.50;;;25.80;69.80;;;;;;4824814;29;20022;-78
2022/07/19 00:16:12;;;;;;;4.28;2.38;;;25.80;70.20;;;;;;4824442;29;20030;-78
2022/07/19 00:18:37;;;;;;;4.30;2.35;;;25.70;70.70;;;;;;4824327;29;20026;-77
2022/07/19 00:21:03;;;;;;;7.38;2.80;;;25.90;71.30;;;;;;4824403;29;20034;-78
2022/07/19 00:23:29;;;;;;;4.32;2.40;;;25.80;71.90;;;;;;4824216;29;20041;-78
2022/07/19 00:25:55;;;;;;;6.30;2.78;;;25.80;72.50;;;;;;4823827;29;20091;-78
2022/07/19 00:28:20;;;;;;;7.10;2.45;;;25.70;73.10;;;;;;4824096;29;20030;-78
2022/07/19 00:30:46;;;;;;;4.22;2.67;;;25.60;74.20;;;;;;4824493;29;20114;-78
2022/07/19 00:33:12;;;;;;;6.00;2.47;;;25.60;74.70;;;;;;4823734;29;20062;-78
2022/07/19 00:35:38;;;;;;;5.00;2.50;;;25.70;75.60;;;;;;4824330;29;20033;-77
2022/07/19 00:38:09;;;;;;;4.13;2.70;;;25.50;76.90;;;;;;4826985;29;20053;-78
2022/07/19 00:40:36;;;;;;;6.30;2.60;;;25.50;77.90;;;;;;4841925;29;20483;-77
2022/07/19 00:43:02;;;;;;;6.05;3.20;;;25.40;78.50;;;;;;4826215;29;20384;-78
2022/07/19 00:45:28;;;;;;;5.63;2.90;;;25.40;79.30;;;;;;4823507;29;20062;-78
2022/07/19 00:47:53;;;;;;;7.60;2.92;;;25.40;79.80;;;;;;4824522;29;20491;-77
2022/07/19 00:50:20;;;;;;;7.80;3.20;;;25.30;80.80;;;;;;4823163;29;20038;-78
2022/07/19 00:52:50;;;;;;;9.45;3.13;;;25.40;80.80;;;;;;4822487;29;20033;-77
2022/07/19 00:55:18;;;;;;;5.85;3.60;;;25.40;81.40;;;;;;4823501;29;20053;-78
2022/07/19 00:57:45;;;;;;;9.20;3.28;;;25.30;81.70;;;;;;4824201;29;20379;-77
2022/07/19 01:00:13;;;;;;;4.78;2.80;;;25.30;82.00;;;;;;4824216;29;20497;-77
2022/07/19 01:02:39;;;;;;;6.72;3.42;;;25.40;82.10;;;;;;4823572;29;20026;-78
2022/07/19 01:05:10;;;;;;;5.03;3.05;;;25.30;83.10;;;;;;4823118;29;20041;-78
2022/07/19 01:07:37;;;;;;;4.00;2.70;;;25.20;84.00;;;;;;4823446;29;20026;-78
2022/07/19 01:10:04;;;;;;;6.55;2.95;;;25.10;84.90;;;;;;4823854;29;20118;-78
2022/07/19 01:12:31;;;;;;;6.30;3.28;;;25.10;85.80;;;;;;4823737;29;20026;-78
2022/07/19 01:14:58;;;;;;;7.93;3.42;;;25.10;86.50;;;;;;4824003;29;20037;-78
2022/07/19 01:17:24;;;;;;;7.22;3.47;;;25.10;86.90;;;;;;4822114;29;20041;-78
2022/07/19 01:19:50;;;;;;;5.45;3.42;;;25.10;86.90;;;;;;4821946;29;20042;-78
2022/07/19 01:22:16;;;;;;;6.85;3.33;;;25.10;87.30;;;;;;4823915;29;20509;-77
2022/07/19 01:24:42;;;;;;;5.47;3.30;;;25.00;87.70;;;;;;4823329;29;20037;-78
2022/07/19 01:27:08;;;;;;;5.93;3.20;;;24.90;88.40;;;;;;4823426;29;20026;-78
2022/07/19 01:29:37;;;;;;;4.38;2.90;;;24.80;89.00;;;;;;4822821;29;20053;-78
2022/07/19 01:32:05;;;;;;;6.20;3.58;;;24.90;89.30;;;;;;4823254;29;20022;-78
2022/07/19 01:34:31;;;;;;;6.65;3.45;;;24.80;90.00;;;;;;4823349;29;20031;-78
2022/07/19 01:36:57;;;;;;;7.60;3.70;;;24.80;90.30;;;;;;4823462;29;20027;-77
2022/07/19 01:39:22;;;;;;;5.47;3.72;;;24.80;90.60;;;;;;4822962;29;20031;-78
2022/07/19 01:41:48;;;;;;;3.92;3.17;;;24.70;90.90;;;;;;4823255;29;20063;-77
2022/07/19 01:44:14;;;;;;;5.35;3.20;;;24.60;91.50;;;;;;4821974;29;20065;-78
2022/07/19 01:46:40;;;;;;;7.53;2.95;;;24.70;91.80;;;;;;4823384;29;20038;-77
2022/07/19 01:49:05;;;;;;;5.38;3.58;;;24.60;92.20;;;;;;4852554;29;20026;-78
2022/07/19 01:51:31;;;;;;;6.45;3.63;;;24.50;92.70;;;;;;4823060;29;20030;-78
2022/07/19 01:53:57;;;;;;;5.10;3.25;;;24.50;93.10;;;;;;4823131;29;20037;-78
2022/07/19 01:56:23;;;;;;;6.43;3.50;;;24.50;93.30;;;;;;4823097;29;20030;-77
2022/07/19 01:58:48;;;;;;;8.32;3.92;;;24.50;93.60;;;;;;4834072;29;20029;-77
2022/07/19 02:01:14;;;;;;;6.55;3.80;;;24.50;94.10;;;;;;4837501;29;20022;-78
2022/07/19 02:03:40;;;;;;;8.95;4.13;;;24.50;94.30;;;;;;4822895;29;20038;-78
2022/07/19 02:06:06;;;;;;;6.85;3.60;;;24.40;95.00;;;;;;4823406;29;20097;-78
2022/07/19 02:08:31;;;;;;;7.13;3.75;;;24.50;95.10;;;;;;4822696;29;20406;-78
2022/07/19 02:10:59;;;;;;;6.38;3.90;;;24.40;96.10;;;;;;4822640;29;20045;-77
2022/07/19 02:13:26;;;;;;;6.05;3.75;;;24.30;97.00;;;;;;4822799;29;20058;-78
2022/07/19 02:15:51;;;;;;;9.38;4.07;;;24.20;97.70;;;;;;4822985;29;20027;-78
2022/07/19 02:18:17;;;;;;;8.70;4.03;;;24.20;98.30;;;;;;4822567;29;20411;-78
2022/07/19 02:20:43;;;;;;;9.65;4.72;;;24.10;98.90;;;;;;4822435;29;20030;-78
2022/07/19 02:23:08;;;;;;;8.23;4.53;;;24.00;99.90;;;;;;4822380;29;20038;-78
2022/07/19 02:25:34;;;;;;;8.82;4.63;;;24.00;99.90;;;;;;4822596;29;20391;-77
2022/07/19 02:28:00;;;;;;;9.27;4.38;;;24.10;99.90;;;;;;4822768;29;20030;-77
2022/07/19 02:30:26;;;;;;;10.35;4.38;;;24.00;99.90;;;;;;4837205;29;20132;-78
2022/07/19 02:32:51;;;;;;;6.80;4.60;;;23.90;99.90;;;;;;4822080;29;20535;-78
2022/07/19 02:35:18;;;;;;;7.32;4.85;;;23.90;99.90;;;;;;4837103;29;20460;-78
2022/07/19 02:37:44;;;;;;;11.63;4.43;;;23.90;99.90;;;;;;4821922;29;20054;-78
2022/07/19 02:40:10;;;;;;;7.82;5.03;;;23.90;99.90;;;;;;4822711;29;20061;-78
2022/07/19 02:42:36;;;;;;;9.80;4.82;;;23.80;99.90;;;;;;4822262;29;20034;-78
2022/07/19 02:45:03;;;;;;;9.52;5.05;;;23.70;99.90;;;;;;4822439;29;20082;-78
2022/07/19 02:47:29;;;;;;;8.23;5.22;;;23.80;99.90;;;;;;4821343;29;20043;-78
2022/07/19 02:49:55;;;;;;;8.52;5.07;;;23.80;99.90;;;;;;4822515;29;20075;-78
2022/07/19 02:52:20;;;;;;;8.82;4.93;;;23.60;99.90;;;;;;4822592;29;20065;-78
2022/07/19 02:54:46;;;;;;;9.05;5.25;;;23.70;99.90;;;;;;4823624;29;20090;-78
2022/07/19 02:57:12;;;;;;;10.38;4.82;;;23.70;99.90;;;;;;4825637;29;20035;-78
2022/07/19 02:59:37;;;;;;;6.25;5.22;;;23.60;99.90;;;;;;4825413;29;20031;-78
2022/07/19 03:02:03;;;;;;;7.13;5.50;;;23.50;99.90;;;;;;4824741;29;20072;-78
2022/07/19 03:04:29;;;;;;;8.82;5.38;;;23.60;99.90;;;;;;4825773;29;20086;-78
2022/07/19 03:06:55;;;;;;;7.90;5.35;;;23.50;99.90;;;;;;4825398;29;20500;-78
2022/07/19 03:09:20;;;;;;;6.60;5.15;;;23.50;99.90;;;;;;4824821;29;20369;-78
2022/07/19 03:11:47;;;;;;;8.15;6.15;;;23.50;99.90;;;;;;4825075;29;20041;-78
2022/07/19 03:14:13;;;;;;;6.88;5.30;;;23.50;99.90;;;;;;4825747;29;20033;-78
2022/07/19 03:16:38;;;;;;;9.00;5.80;;;23.60;99.90;;;;;;4825356;29;20476;-78
2022/07/19 03:19:04;;;;;;;7.40;5.05;;;23.50;99.90;;;;;;4825206;29;20035;-78
2022/07/19 03:21:30;;;;;;;9.18;5.38;;;23.50;99.90;;;;;;4825227;29;20038;-78
2022/07/19 03:23:55;;;;;;;8.07;5.53;;;23.50;99.90;;;;;;4825276;29;20109;-77
2022/07/19 03:26:21;;;;;;;7.10;5.20;;;23.50;99.90;;;;;;4824837;29;20099;-78
2022/07/19 03:28:47;;;;;;;10.48;5.35;;;23.40;99.90;;;;;;4824979;29;20511;-78
2022/07/19 03:31:13;;;;;;;9.25;6.03;;;23.50;99.90;;;;;;4825361;29;20042;-77
2022/07/19 03:33:38;;;;;;;10.27;5.40;;;23.50;99.90;;;;;;4823374;29;20027;-78
2022/07/19 03:36:04;;;;;;;7.82;5.45;;;23.50;99.90;;;;;;4824848;29;20038;-78
2022/07/19 03:38:30;;;;;;;7.30;5.45;;;23.40;99.90;;;;;;4825432;29;20045;-77
2022/07/19 03:40:55;;;;;;;10.32;5.38;;;23.40;99.90;;;;;;4824785;29;20030;-77
2022/07/19 03:43:23;;;;;;;6.85;4.70;;;23.30;99.90;;;;;;4831810;29;20038;-78
2022/07/19 03:45:49;;;;;;;6.25;4.88;;;23.40;99.90;;;;;;4824710;29;20030;-77
2022/07/19 03:48:17;;;;;;;7.25;4.90;;;23.40;99.90;;;;;;4824959;29;20033;-77
2022/07/19 03:50:43;;;;;;;9.52;4.93;;;23.40;99.90;;;;;;4824573;29;20392;-77
2022/07/19 03:53:08;;;;;;;10.55;5.38;;;23.40;99.90;;;;;;4824854;29;20027;-78
2022/07/19 03:55:34;;;;;;;6.65;4.90;;;23.50;99.90;;;;;;4824785;29;20090;-77
2022/07/19 03:58:00;;;;;;;7.45;5.00;;;23.40;99.90;;;;;;4828141;29;20034;-77
2022/07/19 04:00:26;;;;;;;8.23;5.22;;;23.40;99.90;;;;;;4837533;29;20077;-78
2022/07/19 04:02:52;;;;;;;11.13;5.80;;;23.30;99.90;;;;;;4824224;29;20031;-78
2022/07/19 04:05:17;;;;;;;6.78;5.40;;;23.40;99.90;;;;;;4824776;29;20107;-78
2022/07/19 04:07:43;;;;;;;8.82;5.50;;;23.50;99.90;;;;;;4824048;29;20054;-77
2022/07/19 04:10:09;;;;;;;7.40;5.20;;;23.30;99.90;;;;;;4838542;29;20030;-79
2022/07/19 04:12:35;;;;;;;6.95;5.20;;;23.50;99.90;;;;;;4838764;29;20036;-79
2022/07/19 04:15:01;;;;;;;7.47;4.55;;;23.40;99.90;;;;;;4824428;29;20151;-79
2022/07/19 04:17:27;;;;;;;8.00;5.15;;;23.40;99.90;;;;;;4838305;29;20042;-79
2022/07/19 04:19:53;;;;;;;5.07;4.55;;;23.40;99.90;;;;;;4824711;29;20033;-78
2022/07/19 04:22:18;;;;;;;8.55;4.80;;;23.50;99.90;;;;;;4824264;29;20030;-78
2022/07/19 04:24:44;;;;;;;10.38;4.70;;;23.40;99.90;;;;;;4824202;29;20033;-79
2022/07/19 04:27:10;;;;;;;6.00;4.30;;;23.40;99.90;;;;;;4824237;29;20526;-78
2022/07/19 04:29:35;;;;;;;7.05;4.53;;;23.30;99.90;;;;;;4824762;29;20026;-79
2022/07/19 04:32:01;;;;;;;12.45;4.40;;;23.40;99.90;;;;;;4823767;29;20105;-79
2022/07/19 04:34:27;;;;;;;9.10;4.57;;;23.30;99.90;;;;;;4838116;29;20057;-78
2022/07/19 04:36:52;;;;;;;9.68;4.82;;;23.30;99.90;;;;;;4823811;29;20033;-79
2022/07/19 04:39:18;;;;;;;5.95;4.30;;;23.30;99.90;;;;;;4823068;29;20083;-79
2022/07/19 04:41:44;;;;;;;9.65;3.97;;;23.40;99.90;;;;;;4824081;29;20080;-79
2022/07/19 04:44:09;;;;;;;10.45;4.82;;;23.40;99.90;;;;;;4822890;29;20145;-79
2022/07/19 04:46:35;;;;;;;9.50;4.72;;;23.40;99.90;;;;;;4823557;29;20495;-79
2022/07/19 04:49:01;;;;;;;7.47;4.72;;;23.40;99.90;;;;;;4823492;29;20479;-79
2022/07/19 04:51:26;;;;;;;7.43;4.70;;;23.40;99.90;;;;;;4824008;29;20384;-79
2022/07/19 04:53:52;;;;;;;7.47;4.38;;;23.50;99.90;;;;;;4823944;29;20079;-79
2022/07/19 04:56:18;;;;;;;7.47;4.10;;;23.50;99.90;;;;;;4823686;29;20034;-79
2022/07/19 04:58:43;;;;;;;7.18;4.68;;;23.50;99.90;;;;;;4822171;29;20054;-78
2022/07/19 05:01:09;;;;;;;6.78;4.82;;;23.50;99.90;;;;;;4823130;29;20077;-79
2022/07/19 05:03:35;;;;;;;9.05;4.55;;;23.50;99.90;;;;;;4823375;29;20047;-79
2022/07/19 05:06:01;;;;;;;5.10;4.05;;;23.60;99.90;;;;;;4837054;29;20091;-78
2022/07/19 05:08:26;;;;;;;6.47;4.40;;;23.60;99.90;;;;;;4823328;29;20083;-79
2022/07/19 05:10:52;;;;;;;7.00;4.25;;;23.50;99.90;;;;;;4823772;29;20061;-79
2022/07/19 05:13:17;;;;;;;9.18;4.07;;;23.60;99.90;;;;;;4837459;29;20118;-79
2022/07/19 05:15:43;;;;;;;8.20;4.50;;;23.50;99.90;;;;;;4824302;29;20479;-79
2022/07/19 05:18:09;;;;;;;6.90;4.72;;;23.60;99.90;;;;;;4822790;29;20534;-79
2022/07/19 05:20:34;;;;;;;7.85;4.57;;;23.50;99.90;;;;;;4823990;29;20035;-79
2022/07/19 05:23:00;;;;;;;7.75;4.15;;;23.60;99.90;;;;;;4824052;29;20028;-79
2022/07/19 05:25:26;;;;;;;8.02;4.90;;;23.60;99.90;;;;;;4823801;29;20410;-78
2022/07/19 05:27:52;;;;;;;9.60;4.80;;;23.70;99.90;;;;;;4838349;29;20026;-78
2022/07/19 05:30:18;;;;;;;6.22;4.38;;;23.60;99.90;;;;;;4823691;29;20117;-79
2022/07/19 05:32:43;;;;;;;11.80;4.55;;;23.60;99.90;;;;;;4824475;29;20023;-79
2022/07/19 05:35:09;;;;;;;6.68;4.88;;;23.60;99.90;;;;;;4823999;29;20456;-78
2022/07/19 05:37:35;;;;;;;6.97;4.78;;;23.70;99.90;;;;;;4824109;29;20034;-79
2022/07/19 05:40:01;;;;;;;6.25;4.40;;;23.70;99.90;;;;;;4830835;29;20026;-79
2022/07/19 05:42:26;;;;;;;7.75;5.05;;;23.70;99.90;;;;;;4822879;29;20038;-79
2022/07/19 05:44:52;;;;;;;9.23;4.70;;;23.70;99.90;;;;;;4823575;29;20061;-79
2022/07/19 05:47:18;;;;;;;10.48;5.07;;;23.60;99.90;;;;;;4823789;29;20030;-79
2022/07/19 05:49:44;;;;;;;6.40;4.60;;;23.70;99.90;;;;;;4822513;29;20053;-79
2022/07/19 05:52:09;;;;;;;7.68;4.38;;;23.70;99.90;;;;;;4822223;29;20415;-78
2022/07/19 05:54:35;;;;;;;6.35;4.40;;;23.80;99.90;;;;;;4823222;29;20105;-78
2022/07/19 05:57:01;;;;;;;8.02;4.30;;;23.80;99.90;;;;;;4822809;29;20038;-76
2022/07/19 05:59:26;;;;;;;8.05;4.95;;;23.90;99.90;;;;;;4822798;29;20060;-79
2022/07/19 06:01:53;;;;;;;5.68;4.05;;;23.70;99.90;;;;;;4822466;29;20518;-77
2022/07/19 06:04:18;;;;;;;6.47;4.78;;;23.80;99.90;;;;;;4823501;29;20113;-78
2022/07/19 06:06:44;;;;;;;7.70;5.03;;;23.80;99.90;;;;;;4823060;29;20105;-77
2022/07/19 06:09:11;;;;;;;10.05;4.85;;;23.70;99.90;;;;;;4819776;29;20523;-77
2022/07/19 06:11:41;;;;;;;8.98;4.50;;;23.90;99.90;;;;;;4818280;29;20027;-78
2022/07/19 06:14:08;;;;;;;9.30;5.18;;;23.90;99.90;;;;;;4813754;29;20077;-77
2022/07/19 06:16:35;;;;;;;7.90;4.30;;;24.00;99.90;;;;;;4814303;29;20110;-78
2022/07/19 06:19:01;;;;;;;6.90;4.50;;;23.90;99.90;;;;;;4810152;29;20480;-78
2022/07/19 06:21:27;;;;;;;9.80;4.72;;;24.00;99.90;;;;;;4819807;29;20041;-77
2022/07/19 06:23:53;;;;;;;11.10;4.88;;;24.10;99.90;;;;;;4815202;29;20027;-84
2022/07/19 06:26:19;;;;;;;7.85;4.93;;;24.10;99.90;;;;;;4808031;29;20789;-79
2022/07/19 06:28:44;;;;;;;9.77;4.28;;;24.00;99.90;;;;;;4808054;29;20053;-78
2022/07/19 06:31:11;;;;;;;7.20;5.00;;;24.10;99.90;;;;;;4820950;29;20035;-78
2022/07/19 06:33:45;;;;;;;9.13;4.65;;;24.10;99.90;;;;;;4812663;29;20479;-77
2022/07/19 06:36:11;;;;;;;9.05;4.40;;;24.10;99.90;;;;;;4816824;29;20035;-79
2022/07/19 06:38:38;;;;;;;6.20;4.38;;;24.10;99.90;;;;;;4816273;29;20030;-80
2022/07/19 06:41:04;;;;;;;11.02;4.82;;;24.00;99.90;;;;;;4811130;29;20488;-77
2022/07/19 06:43:30;;;;;;;12.07;4.90;;;24.00;99.90;;;;;;4821640;29;20179;-77
2022/07/19 06:45:56;;;;;;;10.98;4.90;;;24.00;99.90;;;;;;4812825;29;20105;-88
2022/07/19 08:29:18;;;;;;;11.23;4.90;;;25.00;99.90;;;;;;5689387;24;20081;-80
2022/07/19 08:31:44;;;;;;;11.00;4.75;;;25.10;99.90;;;;;;4842426;29;20057;-85
2022/07/19 08:34:10;;;;;;;7.53;5.05;;;25.20;99.90;;;;;;4848546;29;20032;-84
2022/07/19 08:36:35;;;;;;;8.70;4.47;;;25.10;99.90;;;;;;4845746;29;20498;-88
2022/07/19 08:39:01;;;;;;;8.65;4.82;;;25.20;99.90;;;;;;4856763;29;20077;-82
2022/07/19 08:41:26;;;;;;;8.75;4.93;;;25.40;99.90;;;;;;4866717;29;20113;-84
2022/07/19 08:43:53;;;;;;;8.77;4.50;;;25.40;99.90;;;;;;4845662;29;20105;-88
2022/07/19 08:46:21;;;;;;;7.78;4.82;;;25.30;99.90;;;;;;4846288;29;20034;-84
2022/07/19 08:48:48;;;;;;;7.38;4.35;;;25.30;99.90;;;;;;4842010;29;20037;-80
2022/07/19 08:51:18;;;;;;;7.28;4.57;;;25.30;99.90;;;;;;4848150;29;20025;-91
2022/07/19 08:53:45;;;;;;;7.75;4.88;;;25.50;99.90;;;;;;4841459;29;20065;-80
2022/07/19 08:58:55;;;;;;;9.65;4.85;;;25.70;99.90;;;;;;4840740;29;20033;-78
2022/07/19 09:01:20;;;;;;;7.25;4.00;;;25.90;99.90;;;;;;4840970;29;20030;-77
2022/07/19 09:04:05;;;;;;;23.60;6.93;;;25.90;99.90;;;;;;4840666;29;20135;-77
2022/07/19 09:06:49;;;;;;;10.48;4.75;;;25.90;99.90;;;;;;4844955;29;20041;-77
2022/07/19 09:09:17;;;;;;;9.88;6.10;;;25.70;99.90;;;;;;4847697;29;20042;-76
2022/07/19 09:11:49;;;;;;;9.13;5.07;;;25.90;99.90;;;;;;4848045;29;20021;-77
2022/07/19 09:14:21;;;;;;;9.20;4.82;;;26.00;99.90;;;;;;4851505;29;20716;-76
2022/07/19 09:16:51;;;;;;;8.50;5.22;;;26.00;99.90;;;;;;4858565;29;20033;-77
2022/07/19 09:19:17;;;;;;;9.85;4.63;;;26.00;99.90;;;;;;4841847;29;20034;-78
2022/07/19 09:21:55;;;;;;;8.50;4.50;;;26.10;99.90;;;;;;4844789;29;20490;-77
2022/07/19 09:24:22;;;;;;;9.50;5.20;;;26.20;99.90;;;;;;4828818;29;20034;-77
2022/07/19 09:27:06;;;;;;;8.43;4.63;;;26.20;99.90;;;;;;4843529;29;20030;-77
2022/07/19 09:29:34;;;;;;;11.25;4.68;;;26.30;99.90;;;;;;4852194;29;20057;-77
2022/07/19 09:32:10;;;;;;;8.25;4.20;;;26.40;99.90;;;;;;4849527;29;20036;-76
2022/07/19 09:34:58;;;;;;;11.05;4.38;;;26.50;99.90;;;;;;4846852;29;20057;-76
2022/07/19 09:37:32;;;;;;;8.52;4.85;;;26.40;99.90;;;;;;4840617;29;20052;-77
2022/07/19 09:40:04;;;;;;;10.02;4.60;;;26.50;99.90;;;;;;4847722;29;20117;-76
2022/07/19 09:42:40;;;;;;;10.23;4.85;;;26.50;99.90;;;;;;4844093;29;20036;-79
2022/07/19 09:45:11;;;;;;;60.25;10.55;;;26.70;99.90;;;;;;4850902;29;20026;-85
2022/07/19 09:47:38;;;;;;;11.43;6.20;;;57.20;99.90;;;;;;4844794;29;20121;-78
2022/07/19 09:50:07;;;;;;;14.35;8.77;;;77.30;99.90;;;;;;4855239;29;20117;-78
2022/07/19 09:52:34;;;;;;;10.13;7.78;;;77.80;99.90;;;;;;4850900;29;20051;-78
2022/07/19 09:55:03;;;;;;;11.77;7.55;;;82.50;99.90;;;;;;4849894;29;20479;-78
2022/07/19 09:57:34;;;;;;;18.48;9.52;;;80.90;99.90;;;;;;4844776;29;20029;-78
2022/07/19 10:00:01;;;;;;;11.07;8.80;;;73.20;99.90;;;;;;4841380;29;21519;-79
2022/07/19 10:02:29;;;;;;;12.98;7.65;;;81.00;99.90;;;;;;4841807;29;20490;-85
2022/07/19 10:04:56;;;;;;;14.23;8.98;;;96.50;99.90;;;;;;4843191;29;20498;-79
2022/07/19 10:07:23;;;;;;;15.85;8.60;;;102.30;99.90;;;;;;4847047;29;20036;-78
2022/07/19 10:09:51;;;;;;;17.17;10.27;;;96.60;99.90;;;;;;4850174;29;20116;-78
2022/07/19 10:12:16;;;;;;;13.10;10.02;;;98.50;99.90;;;;;;4845145;29;20034;-78
2022/07/19 10:14:42;;;;;;;16.15;9.48;;;100.90;99.90;;;;;;4864470;29;20037;-78
2022/07/19 10:17:40;;;;;;;13.45;9.60;;;110.70;99.90;;;;;;4847222;29;20058;-78
2022/07/19 10:20:07;;;;;;;11.43;8.35;;;120.20;99.90;;;;;;4881663;29;20805;-78
2022/07/19 10:22:33;;;;;;;13.70;8.27;;;108.00;99.90;;;;;;4883049;29;20583;-78
2022/07/19 10:25:14;;;;;;;18.25;8.10;;;116.00;99.90;;;;;;4890683;29;20124;-87
2022/07/19 10:27:46;;;;;;;17.00;8.18;;;101.70;99.90;;;;;;4887089;29;20068;-78
2022/07/19 10:30:11;;;;;;;12.85;8.27;;;101.10;99.90;;;;;;4889908;29;20193;-78
2022/07/19 10:32:39;;;;;;;12.52;8.50;;;99.30;99.90;;;;;;4898400;29;20496;-78
2022/07/19 10:35:43;;;;;;;13.57;7.78;;;106.90;99.90;;;;;;4894024;29;20108;-79
2022/07/19 10:38:11;;;;;;;12.38;8.30;;;93.80;99.90;;;;;;4778179;29;20039;-78
2022/07/19 10:40:45;;;;;;;9.93;7.32;;;83.70;99.90;;;;;;4783601;30;20032;-79
2022/07/19 10:43:15;;;;;;;10.60;6.78;;;81.20;99.90;;;;;;4786155;30;20048;-82
2022/07/19 10:46:03;;;;;;;14.38;8.15;;;74.40;99.90;;;;;;4778898;30;20039;-76
2022/07/19 10:48:38;;;;;;;10.90;7.05;;;68.40;99.90;;;;;;4768067;30;20396;-79
2022/07/19 10:51:04;;;;;;;11.13;7.32;;;63.60;99.90;;;;;;4789866;30;20321;-80
2022/07/19 10:53:42;;;;;;;10.32;6.53;;;61.00;99.90;;;;;;4779163;30;20595;-78
2022/07/19 10:56:20;;;;;;;17.70;7.38;;;59.30;99.90;;;;;;4777720;30;20060;-86
2022/07/19 10:58:58;;;;;;;14.15;7.18;;;55.80;99.90;;;;;;4756275;30;20034;-85
2022/07/19 11:01:25;;;;;;;10.82;6.60;;;55.10;99.90;;;;;;4757802;30;20036;-79
2022/07/19 11:03:53;;;;;;;12.93;6.88;;;52.80;99.90;;;;;;4754436;30;20049;-80
2022/07/19 11:06:21;;;;;;;10.25;6.85;;;49.70;99.90;;;;;;4756071;30;20118;-81
2022/07/19 11:08:47;;;;;;;10.77;6.22;;;46.20;99.90;;;;;;4796626;29;20087;-82
2022/07/19 11:11:18;;;;;;;12.32;7.03;;;42.30;99.90;;;;;;4846856;29;20440;-81
2022/07/19 11:13:55;;;;;;;11.38;6.60;;;38.60;99.90;;;;;;4846875;29;20086;-82
2022/07/19 11:16:23;;;;;;;11.02;5.43;;;35.90;99.90;;;;;;4843938;29;20037;-79
2022/07/19 11:18:49;;;;;;;9.18;5.20;;;35.20;99.90;;;;;;4845047;29;20026;-80
2022/07/19 11:21:15;;;;;;;8.82;5.45;;;34.20;99.90;;;;;;4843914;29;20394;-87
2022/07/19 11:23:43;;;;;;;12.55;4.90;;;33.10;99.90;;;;;;4846248;29;20030;-80
2022/07/19 11:26:17;;;;;;;14.18;5.50;;;34.70;99.90;;;;;;4843588;29;20117;-81
2022/07/19 11:28:45;;;;;;;9.45;4.78;;;34.00;99.90;;;;;;4844260;29;20486;-80
2022/07/19 11:31:13;;;;;;;13.98;5.68;;;33.20;99.90;;;;;;4843521;29;20082;-79
2022/07/19 11:33:39;;;;;;;7.95;4.93;;;32.00;99.90;;;;;;4842605;29;20530;-79
2022/07/19 11:36:05;;;;;;;6.85;4.10;;;30.90;99.90;;;;;;4843788;29;20034;-78
2022/07/19 11:38:51;;;;;;;5.35;4.57;;;30.50;99.90;;;;;;4843712;29;20026;-79
2022/07/19 11:41:30;;;;;;;8.10;4.50;;;30.20;99.90;;;;;;4843863;29;20038;-78
2022/07/19 11:44:06;;;;;;;15.98;4.88;;;30.50;99.90;;;;;;4843615;29;20022;-82
2022/07/19 11:46:38;;;;;;;14.40;3.92;;;30.90;99.90;;;;;;4843374;29;20491;-78
2022/07/19 11:49:05;;;;;;;6.97;4.45;;;30.50;99.90;;;;;;4843162;29;20030;-80
2022/07/19 11:51:32;;;;;;;21.23;5.65;;;30.20;99.90;;;;;;4843516;29;20109;-81
2022/07/19 11:53:59;;;;;;;61.35;6.75;;;31.10;99.90;;;;;;4843617;29;20026;-81
2022/07/19 11:56:30;;;;;;;6.05;4.10;;;31.90;99.90;;;;;;4842583;29;20038;-81
2022/07/19 11:58:58;;;;;;;7.90;3.92;;;32.20;99.90;;;;;;4842954;29;20030;-81
2022/07/19 12:01:27;;;;;;;10.55;3.80;;;31.80;99.90;;;;;;4843070;29;20045;-83
2022/07/19 12:04:03;;;;;;;9.75;3.92;;;32.00;99.90;;;;;;4857986;29;20017;-81
2022/07/19 12:06:37;;;;;;;5.00;3.90;;;31.80;99.90;;;;;;4842534;29;20053;-80
2022/07/19 12:09:13;;;;;;;8.13;3.78;;;32.40;99.90;;;;;;4850151;29;20017;-80
2022/07/19 12:11:43;;;;;;;5.00;3.53;;;32.70;99.90;;;;;;4843258;29;20078;-81
2022/07/19 12:14:30;;;;;;;5.72;3.72;;;32.70;99.90;;;;;;4845306;29;20513;-80
2022/07/19 12:17:11;;;;;;;6.47;3.20;;;32.20;99.60;;;;;;4860056;29;20030;-80
2022/07/19 12:19:38;;;;;;;6.13;3.25;;;32.20;99.90;;;;;;4842720;29;20545;-80
2022/07/19 12:22:03;;;;;;;6.70;3.30;;;32.20;99.90;;;;;;4843082;29;20037;-81
2022/07/19 12:24:30;;;;;;;4.78;3.53;;;32.90;99.10;;;;;;4842261;29;20446;-80
2022/07/19 12:27:07;;;;;;;6.97;3.10;;;32.70;97.30;;;;;;4842094;29;20030;-80
2022/07/19 12:29:44;;;;;;;4.78;3.25;;;32.60;97.60;;;;;;4842372;29;20653;-81
2022/07/19 12:32:11;;;;;;;7.40;3.30;;;32.90;96.10;;;;;;4842415;29;20037;-80
2022/07/19 12:34:46;;;;;;;9.57;3.70;;;32.70;95.80;;;;;;4856548;29;20516;-80
2022/07/19 12:37:24;;;;;;;5.28;3.25;;;33.00;96.20;;;;;;4842901;29;20044;-80
2022/07/19 12:40:05;;;;;;;9.80;3.40;;;33.10;94.40;;;;;;4841689;29;20038;-77
2022/07/19 12:42:44;;;;;;;6.32;3.45;;;32.70;96.00;;;;;;4842214;29;20057;-76
2022/07/19 12:45:15;;;;;;;15.43;4.07;;;32.20;99.10;;;;;;4842269;29;20030;-76
2022/07/19 12:47:41;;;;;;;12.43;4.05;;;32.90;97.90;;;;;;4833857;29;20148;-83
2022/07/19 12:50:08;;;;;;;6.30;3.42;;;32.60;96.60;;;;;;4842343;29;20711;-82
2022/07/19 12:52:34;;;;;;;8.23;3.53;;;32.80;96.70;;;;;;4846821;29;20502;-76
2022/07/19 12:55:00;;;;;;;7.13;3.33;;;33.00;96.60;;;;;;4842591;29;20086;-82
2022/07/19 12:57:27;;;;;;;5.00;3.00;;;32.70;95.60;;;;;;4841631;29;20057;-84
2022/07/19 12:59:53;;;;;;;7.50;3.38;;;32.60;96.30;;;;;;4842045;29;20021;-83
2022/07/19 13:02:19;;;;;;;11.75;3.30;;;32.60;96.70;;;;;;4842361;29;20038;-81
2022/07/19 13:04:45;;;;;;;7.15;3.50;;;33.10;94.80;;;;;;4842087;29;20034;-82
2022/07/19 13:07:12;;;;;;;7.32;3.25;;;33.10;95.20;;;;;;4842350;29;20037;-84
2022/07/19 13:09:39;;;;;;;11.05;3.42;;;33.20;94.10;;;;;;4841318;29;20455;-80
2022/07/19 13:12:07;;;;;;;12.50;3.03;;;33.40;93.80;;;;;;4842014;29;20030;-80
2022/07/19 13:14:34;;;;;;;5.53;3.50;;;33.50;92.70;;;;;;4863108;29;20022;-80
2022/07/19 13:17:00;;;;;;;9.85;3.30;;;33.20;93.30;;;;;;4839184;29;20038;-80
2022/07/19 13:19:26;;;;;;;4.82;3.53;;;33.50;93.60;;;;;;4848273;29;20117;-80
2022/07/19 13:21:53;;;;;;;5.90;3.47;;;33.40;91.80;;;;;;4841694;29;20117;-80
2022/07/19 13:24:19;;;;;;;6.55;3.33;;;33.40;92.70;;;;;;4840595;29;20037;-80
2022/07/19 13:26:45;;;;;;;6.07;3.42;;;33.50;91.20;;;;;;4855848;29;20383;-79
2022/07/19 13:29:11;;;;;;;5.90;3.30;;;33.50;90.80;;;;;;4841334;29;20051;-79
2022/07/19 13:31:37;;;;;;;5.82;3.10;;;33.20;93.10;;;;;;4841571;29;20041;-79
2022/07/19 13:34:03;;;;;;;7.93;3.25;;;33.10;91.80;;;;;;4841883;29;20030;-79
2022/07/19 13:36:29;;;;;;;4.43;3.03;;;33.30;90.80;;;;;;4841977;29;20021;-79
2022/07/19 13:38:55;;;;;;;8.27;2.80;;;33.40;90.90;;;;;;4839378;29;20446;-80
2022/07/19 13:41:21;;;;;;;5.22;3.45;;;33.40;90.40;;;;;;4841392;29;20113;-80
2022/07/19 13:43:47;;;;;;;7.28;3.20;;;33.40;91.00;;;;;;4840302;29;20479;-79
2022/07/19 13:46:13;;;;;;;5.82;3.22;;;33.40;90.30;;;;;;4840025;29;20658;-78
2022/07/19 13:48:42;;;;;;;6.65;3.20;;;33.00;90.90;;;;;;4841014;29;20037;-80
2022/07/19 13:51:08;;;;;;;5.22;3.17;;;33.20;91.30;;;;;;4841321;29;20113;-80
2022/07/19 13:53:35;;;;;;;5.68;3.25;;;33.20;90.20;;;;;;4841263;29;20037;-80
2022/07/19 13:56:01;;;;;;;7.68;2.90;;;33.20;89.70;;;;;;4841261;29;20726;-80
2022/07/19 13:58:26;;;;;;;4.00;3.20;;;33.50;90.10;;;;;;4842121;29;20028;-80
2022/07/19 14:00:52;;;;;;;7.28;2.97;;;33.50;90.40;;;;;;4840970;29;20461;-80
2022/07/19 14:03:18;;;;;;;5.75;3.15;;;33.40;88.80;;;;;;4841401;29;20407;-80
2022/07/19 14:05:44;;;;;;;7.50;3.13;;;33.70;90.20;;;;;;4854968;29;20117;-80
2022/07/19 14:08:10;;;;;;;5.05;3.15;;;33.60;88.40;;;;;;4855517;29;20443;-80
2022/07/19 14:10:37;;;;;;;10.85;3.88;;;33.60;86.90;;;;;;4841240;29;20105;-81
2022/07/19 14:13:03;;;;;;;10.70;3.63;;;33.30;87.70;;;;;;4840708;29;20029;-80
2022/07/19 14:15:29;;;;;;;8.65;3.42;;;33.20;88.80;;;;;;4841579;29;20037;-79
2022/07/19 14:17:55;;;;;;;7.13;3.80;;;33.20;89.50;;;;;;4840988;29;20582;-80
2022/07/19 14:20:20;;;;;;;10.25;3.08;;;33.30;90.20;;;;;;4843442;29;20119;-80
2022/07/19 14:22:46;;;;;;;7.63;3.28;;;33.40;89.10;;;;;;4843193;29;20064;-81
2022/07/19 14:25:12;;;;;;;3.90;2.90;;;33.60;86.80;;;;;;4841084;29;20034;-81
2022/07/19 14:27:37;;;;;;;7.88;3.20;;;34.00;84.60;;;;;;4840954;29;20402;-82
2022/07/19 14:30:03;;;;;;;7.63;3.25;;;33.80;86.20;;;;;;4840904;29;20046;-79